x

East Scotia Slope (44137) Wave Buoy

11:00am - Fri 27th Feb 2015 All times are EST. -5 hours from GMT.

  • Sig Wave height 10.5ft
  • Peak Period 12s
  • Wind
    16mph, 22mph gusts
  • Sea Temp 60°f
  • Air Temp 34°f
  • Sea Pressure 1021.2mb
  • East Scotia Slope
  • East Scotia Slope

More Historic Weather Station data

Upgrade to MSW Pro to gain access to the past 30 days of data for over 8000 Wavebouys and Weather Stations around the globe.

Join Pro

Comparision Forecast

View Surf forecast
   
Fri 02/27 11:00am 10.5ft 12s 16 22 mph 1021.2mb 60f 34f
10:00am 11ft 12s 13 22 mph 1020.7mb 59f 34f
9:00am 12ft 12s 16 22 mph 1019.6mb 59f 35f
8:00am 11.5ft 10s 18 27 mph 1019mb 59f 35f
7:00am 11.5ft 11s 16 22 mph 1017.8mb 58f 36f
6:00am 12ft 12s 16 22 mph 1016.1mb 58f 37f
5:00am 13ft 10s 16 22 mph 1014.8mb 59f 38f
4:00am 12ft 11s 18 25 mph 1013.3mb 59f 38f
3:00am 12ft 9s 18 25 mph 1011.8mb 58f 38f
2:00am 11.5ft 8s 22 27 mph 1010.4mb 58f 39f
12:00am 11ft 8s 25 31 mph 1008.6mb 58f 40f
Thu 02/26 11:00pm 11ft 7s 27 34 mph 1007.9mb 58f 40f
10:00pm 11ft 7s 29 34 mph 1007.3mb 59f 41f
9:00pm 10ft 7s 29 36 mph 1005.8mb 59f 43f
8:00pm 10ft 6s 31 40 mph 1005.1mb 59f 43f
7:00pm 10ft 11s 34 40 mph 1005.6mb 58f 42f
6:00pm 9ft 10s 34 40 mph 1007.9mb 58f 41f
5:00pm 8ft 10s 29 38 mph 1007.3mb 58f 41f
4:00pm 7ft 11s 25 31 mph 1008mb 59f 41f
3:00pm 7ft 10s 18 25 mph 1010.5mb 59f 40f
2:00pm 7.5ft 10s 16 20 mph 1011.6mb 58f 39f
1:00pm 8.5ft 10s 7 16 mph 1013.2mb 57f 39f
12:00pm 8ft 9s 4 7 mph 1014.5mb 58f 42f
11:00am 9ft 11s 2 9 mph 1016.2mb 58f 41f
10:00am 9.5ft 10s 7 11 mph 1017.1mb 58f 41f
9:00am 10ft 10s 9 18 mph 1017.8mb 58f 40f
8:00am 10.5ft 8s 11 18 mph 1018mb 57f 40f
7:00am 10.5ft 9s 11 20 mph 1017.5mb 57f 39f
6:00am 11.5ft 9s 11 18 mph 1016.9mb 57f 38f
5:00am 11.5ft 9s 13 22 mph 1016.7mb 57f 37f
4:00am 11.5ft 9s 18 25 mph 1015.9mb 57f 37f
3:00am 12.5ft 9s 22 31 mph 1014.4mb 56f 36f
2:00am 12.5ft 8s 27 34 mph 1013.6mb 56f 37f
1:00am 12.5ft 8s 29 40 mph 1012.8mb 56f 37f
12:00am 11.5ft 10s 31 40 mph 1011.6mb 56f 38f
Wed 02/25 11:00pm 12ft 10s 29 38 mph 1009.8mb 56f 39f
10:00pm 13.5ft 10s 31 40 mph 1008.4mb 56f 39f
9:00pm  -   -  29
mph
1007.3mb 56f 40f
8:00pm 14ft 10s 31 40 mph 1006.3mb 57f 41f
7:00pm 15ft 10s 31 40 mph 1005.1mb 57f 42f
6:00pm 14.5ft 10s 31 40 mph 1003.2mb 57f 45f
5:00pm 17ft 10s 31 43 mph 1001.3mb 57f 48f
4:00pm 20ft 10s 34 45 mph 998.9mb 56f 50f
3:00pm 19ft 10s 45 58 mph 995.3mb 56f 55f
2:00pm 17.5ft 9s 45 56 mph 996mb 57f 55f
1:00pm 16ft 8s 43 54 mph 998.9mb 56f 53f
12:00pm 12ft 8s 40 51 mph 1002.1mb 56f 52f
11:00am 10ft 7s 38 49 mph 1006.3mb 56f 51f
10:00am 8ft 6s 38 47 mph 1008.8mb 56f 49f
9:00am 6.5ft 5s 34 40 mph 1011.1mb 56f 48f
8:00am 5ft 4s 29 36 mph 1012.9mb 56f 46f
7:00am 5ft 8s 25 31 mph 1014.9mb 56f 44f
6:00am 4.5ft 8s 18 25 mph 1015.8mb 56f 42f
5:00am 5ft 10s 18 22 mph 1017.4mb 55f 41f
4:00am 5ft 8s 18 27 mph 1017.7mb 55f 40f
3:00am 4.5ft 8s 18 27 mph 1019.3mb 55f 38f
2:00am 5ft 9s 16 22 mph 1019.9mb 55f 37f
1:00am 5ft 8s 13 20 mph 1021.3mb 55f 34f
12:00am 5ft 10s 13 18 mph 1021.8mb 55f 33f
Tue 02/24 11:00pm 6.5ft 9s 7 13 mph 1022.6mb 55f 30f
10:00pm 7ft 10s 7 11 mph 1023.7mb 55f 28f
9:00pm 7.5ft 10s 4 11 mph 1024.3mb 55f 26f
8:00pm 8ft 10s 2 7 mph 1024.4mb 55f 25f
7:00pm 8ft 10s 4 9 mph 1023.8mb 55f 24f
6:00pm 9ft 10s 7 13 mph 1023.8mb 55f 24f
5:00pm 10ft 10s 11 16 mph 1023.7mb 55f 24f
4:00pm 11ft 10s 18 25 mph 1022.6mb 55f 23f
3:00pm 10ft 8s 18 25 mph 1021.9mb 55f 23f
2:00pm 11ft 10s 20 29 mph 1021.2mb 55f 22f
1:00pm 12ft 10s 22 29 mph 1020.4mb 55f 22f
12:00pm 12ft 8s 25 31 mph 1020.1mb 55f 21f
11:00am 15ft 10s 27 38 mph 1019.9mb 55f 21f
10:00am  -   -  27
mph
1019.6mb 54f 20f
9:00am 15ft 10s 29 38 mph 1019.2mb 54f 20f
8:00am 15ft 10s 31 40 mph 1018.7mb 54f 20f
7:00am 15ft 10s 34 45 mph 1017.8mb 54f 20f
6:00am 14ft 9s 31 40 mph 1017mb 53f 21f
5:00am  -   -  34
mph
1016.1mb 53f 21f
4:00am 14ft 10s 36 49 mph 1015.1mb 53f 22f
3:00am  -   -  34
mph
- - -
2:00am 12ft 9s 36 43 mph 1012.4mb 53f 25f
1:00am 11ft 8s 34 40 mph 1011.3mb 53f 28f
12:00am 11ft 7s 29 38 mph 1010.7mb 53f 31f
Mon 02/23 11:00pm 11ft 7s 31 38 mph 1010.2mb 54f 32f
10:00pm 11ft 6s 29 38 mph 1009.8mb 54f 33f
9:00pm 9.5ft 7s 29 38 mph 1010.1mb 54f 35f
8:00pm 9ft 7s 27 34 mph 1010.3mb 54f 37f
7:00pm 9ft 10s 27 31 mph 1010.2mb 54f 39f
6:00pm 8.5ft 9s 25 31 mph 1010.3mb 54f 41f